createdAt,value
2022-08-17T00:00:43.601Z,100385.81
2022-08-17T00:03:15.260Z,100388.56
2022-08-17T00:05:49.258Z,100382.50
2022-08-17T00:08:22.769Z,100383.06
2022-08-17T00:10:53.015Z,100382.22
2022-08-17T00:13:26.368Z,100379.75
2022-08-17T00:15:59.953Z,100383.63
2022-08-17T00:19:01.411Z,100383.06
2022-08-17T00:21:23.895Z,100382.25
2022-08-17T00:23:54.771Z,100378.09
2022-08-17T00:26:43.643Z,100380.03
2022-08-17T00:29:19.546Z,100383.34
2022-08-17T00:31:48.579Z,100385.81
2022-08-17T00:34:17.192Z,100388.88
2022-08-17T00:36:47.092Z,100390.19
2022-08-17T00:39:15.572Z,100383.31
2022-08-17T00:41:44.007Z,100373.66
2022-08-17T00:44:13.023Z,100380.56
2022-08-17T00:46:44.050Z,100372.25
2022-08-17T00:49:14.478Z,100383.56
2022-08-17T00:51:49.343Z,100380.25
2022-08-17T00:54:25.249Z,100375.28
2022-08-17T00:56:58.098Z,100373.09
2022-08-17T00:59:32.082Z,100371.44
2022-08-17T01:02:00.931Z,100370.91
2022-08-17T01:04:31.400Z,100364.81
2022-08-17T01:07:04.453Z,100369.50
2022-08-17T01:09:34.243Z,100367.03
2022-08-17T01:12:02.918Z,100367.56
2022-08-17T01:14:31.358Z,100359.56
2022-08-17T01:17:00.870Z,100358.22
2022-08-17T01:19:32.652Z,100357.63
2022-08-17T01:22:07.666Z,100354.59
2022-08-17T01:24:38.793Z,100367.81
2022-08-17T01:27:10.343Z,100364.53
2022-08-17T01:29:42.348Z,100359.56
2022-08-17T01:32:11.219Z,100365.34
2022-08-17T01:34:43.534Z,100363.66
2022-08-17T01:37:21.195Z,100365.59
2022-08-17T01:39:55.399Z,100362.28
2022-08-17T01:42:28.250Z,100369.16
2022-08-17T01:44:59.473Z,100359.53
2022-08-17T01:47:27.982Z,100365.28
2022-08-17T01:49:58.467Z,100371.63
2022-08-17T01:52:26.859Z,100367.50
2022-08-17T01:54:57.578Z,100366.06
2022-08-17T01:57:25.981Z,100363.03
2022-08-17T01:59:54.394Z,100372.41
2022-08-17T02:02:30.467Z,100366.06
2022-08-17T02:05:00.179Z,100355.31
2022-08-17T02:07:29.185Z,100358.34
2022-08-17T02:09:59.574Z,100359.72
2022-08-17T02:12:37.762Z,100358.59
2022-08-17T02:15:15.999Z,100366.03
2022-08-17T02:17:45.473Z,100367.97
2022-08-17T02:20:13.979Z,100362.72
2022-08-17T02:22:45.757Z,100360.25
2022-08-17T02:25:19.913Z,100358.03
2022-08-17T02:27:53.048Z,100352.53
2022-08-17T02:31:01.462Z,100358.28
2022-08-17T02:33:10.494Z,100358.84
2022-08-17T02:35:39.858Z,100359.91
2022-08-17T02:38:08.908Z,100362.13
2022-08-17T02:40:40.683Z,100362.94
2022-08-17T02:43:10.042Z,100362.38
2022-08-17T02:45:38.583Z,100358.22
2022-08-17T02:48:07.360Z,100366.75
2022-08-17T02:50:35.864Z,100360.69
2022-08-17T02:53:04.798Z,100361.53
2022-08-17T02:55:37.779Z,100362.91
2022-08-17T02:58:08.497Z,100358.50
2022-08-17T03:00:41.435Z,100356.00
2022-08-17T03:03:13.743Z,100359.84
2022-08-17T03:05:42.397Z,100361.78
2022-08-17T03:08:13.112Z,100360.97
2022-08-17T03:10:42.692Z,100361.78
2022-08-17T03:13:14.498Z,100360.97
2022-08-17T03:15:45.999Z,100356.28
2022-08-17T03:18:24.535Z,100351.84
2022-08-17T03:20:55.946Z,100352.72
2022-08-17T03:23:25.363Z,100357.09
2022-08-17T03:25:55.136Z,100359.56
2022-08-17T03:28:26.622Z,100363.16
2022-08-17T03:30:55.230Z,100364.25
2022-08-17T03:33:24.217Z,100361.25
2022-08-17T03:35:53.194Z,100364.84
2022-08-17T03:38:22.024Z,100352.72
2022-08-17T03:40:57.192Z,100351.59
2022-08-17T03:43:31.826Z,100350.53
2022-08-17T03:46:28.123Z,100349.69
2022-08-17T03:49:20.129Z,100351.59
2022-08-17T03:52:06.291Z,100360.16
2022-08-17T03:54:51.951Z,100358.78
2022-08-17T03:57:20.496Z,100360.16
2022-08-17T03:59:50.882Z,100361.53
2022-08-17T04:02:22.579Z,100357.13
2022-08-17T04:04:52.497Z,100360.16
2022-08-17T04:07:21.874Z,100353.53
2022-08-17T04:09:50.757Z,100353.28
2022-08-17T04:12:21.219Z,100355.75
2022-08-17T04:14:52.715Z,100354.66
2022-08-17T04:17:24.418Z,100351.59
2022-08-17T04:19:53.129Z,100347.78
2022-08-17T04:22:31.906Z,100352.44
2022-08-17T04:25:09.368Z,100351.06
2022-08-17T04:27:39.282Z,100349.97
2022-08-17T04:30:10.752Z,100347.50
2022-08-17T04:33:04.552Z,100346.38
2022-08-17T04:35:37.716Z,100349.69
2022-08-17T04:38:06.339Z,100349.97
2022-08-17T04:40:52.074Z,100350.78
2022-08-17T04:43:22.401Z,100351.59
2022-08-17T04:45:56.715Z,100349.69
2022-08-17T04:48:32.239Z,100345.56
2022-08-17T04:51:10.749Z,100345.81
2022-08-17T04:53:40.812Z,100357.94
2022-08-17T04:56:16.053Z,100347.50
2022-08-17T04:58:45.954Z,100347.22
2022-08-17T05:01:16.759Z,100342.28
2022-08-17T05:03:52.053Z,100343.34
2022-08-17T05:06:20.852Z,100341.47
2022-08-17T05:08:49.711Z,100334.28
2022-08-17T05:11:18.359Z,100331.56
2022-08-17T05:13:46.789Z,100333.50
2022-08-17T05:16:17.565Z,100324.16
2022-08-17T05:18:46.149Z,100319.50
2022-08-17T05:21:14.668Z,100324.19
2022-08-17T05:23:43.906Z,100318.97
2022-08-17T05:26:26.283Z,100317.31
2022-08-17T05:28:59.841Z,100310.44
2022-08-17T05:31:31.242Z,100311.03
2022-08-17T05:34:00.004Z,100316.56
2022-08-17T05:36:42.154Z,100311.88
2022-08-17T05:39:15.896Z,100308.88
2022-08-17T05:41:48.755Z,100314.69
2022-08-17T05:44:18.273Z,100311.94
2022-08-17T05:46:52.027Z,100312.19
2022-08-17T05:49:27.286Z,100302.28
2022-08-17T05:52:14.885Z,100307.22
2022-08-17T05:55:01.748Z,100304.19
2022-08-17T05:57:53.245Z,100303.41
2022-08-17T06:00:30.422Z,100305.88
2022-08-17T06:03:36.251Z,100311.38
2022-08-17T06:06:25.339Z,100307.22
2022-08-17T06:09:20.038Z,100305.56
2022-08-17T06:12:02.375Z,100304.69
2022-08-17T06:14:47.571Z,100296.66
2022-08-17T06:17:20.138Z,100304.38
2022-08-17T06:19:54.728Z,100306.00
2022-08-17T06:22:27.428Z,100307.09
2022-08-17T06:25:02.359Z,100306.53
2022-08-17T06:27:38.584Z,100298.50
2022-08-17T06:30:10.642Z,100308.41
2022-08-17T06:32:40.888Z,100304.78
2022-08-17T06:35:13.237Z,100305.59
2022-08-17T06:38:04.181Z,100310.81
2022-08-17T06:41:10.713Z,100311.06
2022-08-17T06:43:50.441Z,100305.50
2022-08-17T06:46:25.431Z,100301.31
2022-08-17T06:49:08.067Z,100301.81
2022-08-17T06:51:42.089Z,100305.13
2022-08-17T06:54:18.864Z,100302.03
2022-08-17T06:56:55.350Z,100305.59
2022-08-17T06:59:34.808Z,100301.66
2022-08-17T07:02:29.176Z,100301.88
2022-08-17T07:05:14.477Z,100306.78
2022-08-17T07:08:05.649Z,100298.16
2022-08-17T07:10:40.399Z,100295.59
2022-08-17T07:13:30.986Z,100288.91
2022-08-17T07:16:08.417Z,100294.09
2022-08-17T07:18:37.533Z,100292.09
2022-08-17T07:21:17.925Z,100279.28
2022-08-17T07:24:01.226Z,100277.81
2022-08-17T07:26:30.106Z,100277.75
2022-08-17T07:29:00.638Z,100267.13
2022-08-17T07:31:33.790Z,100274.81
2022-08-17T07:34:08.071Z,100277.75
2022-08-17T07:36:36.571Z,100272.38
2022-08-17T07:39:07.967Z,100271.75
2022-08-17T07:41:53.026Z,100261.97
2022-08-17T07:44:28.282Z,100270.13
2022-08-17T07:47:15.065Z,100259.19
2022-08-17T07:49:47.044Z,100259.94
2022-08-17T07:52:51.458Z,100255.38
2022-08-17T07:55:31.208Z,100255.03
2022-08-17T07:58:01.996Z,100247.47
2022-08-17T08:00:32.740Z,100249.53
2022-08-17T08:03:14.876Z,100251.63
2022-08-17T08:05:53.319Z,100251.56
2022-08-17T08:08:42.781Z,100262.25
2022-08-17T08:11:15.770Z,100253.03
2022-08-17T08:13:46.108Z,100250.69
2022-08-17T08:16:29.282Z,100253.06
2022-08-17T08:19:00.235Z,100251.53
2022-08-17T08:21:34.456Z,100249.53
2022-08-17T08:24:30.978Z,100251.28
2022-08-17T08:27:11.878Z,100244.00
2022-08-17T08:29:46.955Z,100242.47
2022-08-17T08:32:21.654Z,100241.75
2022-08-17T08:35:04.947Z,100247.72
2022-08-17T08:37:44.753Z,100235.91
2022-08-17T08:40:38.811Z,100235.72
2022-08-17T08:43:22.794Z,100230.78
2022-08-17T08:45:58.893Z,100231.91
2022-08-17T08:48:58.037Z,100228.47
2022-08-17T08:51:39.009Z,100233.16
2022-08-17T08:54:26.402Z,100229.56
2022-08-17T08:57:25.696Z,100230.84
2022-08-17T09:00:04.112Z,100224.94
2022-08-17T09:03:09.716Z,100229.56
2022-08-17T09:05:58.222Z,100215.41
2022-08-17T09:08:36.235Z,100222.97
2022-08-17T09:11:11.266Z,100212.28
2022-08-17T09:13:54.595Z,100219.34
2022-08-17T09:16:30.724Z,100216.88
2022-08-17T09:19:05.110Z,100217.06
2022-08-17T09:21:48.191Z,100211.44
2022-08-17T09:24:26.010Z,100211.00
2022-08-17T09:27:00.843Z,100213.94
2022-08-17T09:29:35.384Z,100202.41
2022-08-17T09:32:16.294Z,100198.41
2022-08-17T09:34:51.569Z,100205.41
2022-08-17T09:37:27.253Z,100205.03
2022-08-17T09:40:09.754Z,100205.97
2022-08-17T09:42:46.361Z,100205.19
2022-08-17T09:45:27.854Z,100200.13
2022-08-17T09:48:05.065Z,100201.19
2022-08-17T09:51:04.140Z,100203.47
2022-08-17T09:53:32.068Z,100204.94
2022-08-17T09:56:24.112Z,100194.56
2022-08-17T09:59:17.351Z,100198.28
2022-08-17T10:01:52.784Z,100192.69
2022-08-17T10:04:38.329Z,100199.13
2022-08-17T10:07:15.571Z,100191.25
2022-08-17T10:09:55.947Z,100192.53
2022-08-17T10:12:35.645Z,100186.41
2022-08-17T10:15:26.714Z,100193.78
2022-08-17T10:18:20.099Z,100182.34
2022-08-17T10:21:17.025Z,100182.13
2022-08-17T10:24:16.186Z,100188.03
2022-08-17T10:26:57.153Z,100183.81
2022-08-17T10:29:47.269Z,100195.97
2022-08-17T10:32:32.261Z,100175.84
2022-08-17T10:35:27.131Z,100177.78
2022-08-17T10:38:15.573Z,100168.25
2022-08-17T10:40:53.196Z,100181.50
2022-08-17T10:43:35.464Z,100169.59
2022-08-17T10:46:30.681Z,100171.34
2022-08-17T10:49:25.140Z,100175.81
2022-08-17T10:51:55.706Z,100169.53
2022-08-17T10:54:48.003Z,100163.53
2022-08-17T10:57:39.005Z,100160.59
2022-08-17T11:00:16.080Z,100165.34
2022-08-17T11:02:50.968Z,100168.19
2022-08-17T11:05:37.947Z,100168.66
2022-08-17T11:08:37.763Z,100167.78
2022-08-17T11:11:40.245Z,100156.31
2022-08-17T11:14:26.132Z,100162.16
2022-08-17T11:17:13.199Z,100152.47
2022-08-17T11:20:09.851Z,100154.84
2022-08-17T11:23:09.598Z,100152.47
2022-08-17T11:25:41.990Z,100153.25
2022-08-17T11:28:19.378Z,100149.25
2022-08-17T11:30:52.249Z,100149.66
2022-08-17T11:34:04.276Z,100151.00
2022-08-17T11:36:56.135Z,100147.34
2022-08-17T11:39:41.454Z,100145.34
2022-08-17T11:42:25.624Z,100145.09
2022-08-17T11:44:59.150Z,100138.13
2022-08-17T11:48:15.981Z,100141.44
2022-08-17T11:51:06.947Z,100137.28
2022-08-17T11:57:00.528Z,100125.84
2022-08-17T11:59:57.709Z,100129.69
2022-08-17T12:02:47.850Z,100125.41
2022-08-17T12:05:29.224Z,100127.13
2022-08-17T12:08:07.705Z,100117.53
2022-08-17T12:10:54.443Z,100123.25
2022-08-17T12:13:30.482Z,100132.09
2022-08-17T12:16:10.160Z,100130.44
2022-08-17T12:18:42.292Z,100117.84
2022-08-17T12:21:19.954Z,100118.53
2022-08-17T12:23:57.781Z,100118.72
2022-08-17T12:26:30.496Z,100124.06
2022-08-17T12:29:02.609Z,100113.66
2022-08-17T12:31:36.571Z,100122.81
2022-08-17T12:34:06.284Z,100117.44
2022-08-17T12:36:35.253Z,100116.13
2022-08-17T12:39:13.820Z,100117.38
2022-08-17T12:41:47.049Z,100112.66
2022-08-17T12:44:18.378Z,100110.84
2022-08-17T12:46:55.554Z,100113.63
2022-08-17T12:49:29.066Z,100107.69
2022-08-17T12:52:06.149Z,100105.09
2022-08-17T12:54:42.250Z,100102.31
2022-08-17T12:57:14.768Z,100108.91
2022-08-17T12:59:47.550Z,100106.34
2022-08-17T13:02:44.719Z,100106.94
2022-08-17T13:05:25.946Z,100105.97
2022-08-17T13:07:54.997Z,100115.53
2022-08-17T14:10:31.035Z,100097.03
2022-08-17T14:12:59.674Z,100089.31
2022-08-17T14:15:54.615Z,100089.31
2022-08-17T14:18:18.044Z,100094.41
2022-08-17T14:21:08.501Z,100091.47
2022-08-17T14:23:38.579Z,100088.22
2022-08-17T14:26:08.899Z,100084.97
2022-08-17T14:28:38.783Z,100084.63
2022-08-17T14:31:22.941Z,100079.25
2022-08-17T14:33:51.563Z,100085.97
2022-08-17T14:36:19.941Z,100085.81
2022-08-17T14:38:48.318Z,100090.91
2022-08-17T14:41:21.972Z,100092.75
2022-08-17T14:43:51.471Z,100087.31
2022-08-17T14:46:20.021Z,100091.94
2022-08-17T14:48:52.729Z,100099.16
2022-08-17T14:51:24.288Z,100087.84
2022-08-17T14:53:52.706Z,100083.28
2022-08-17T14:56:22.627Z,100087.38
2022-08-17T14:58:51.974Z,100087.38
2022-08-17T15:01:22.154Z,100085.59
2022-08-17T15:03:50.843Z,100091.50
2022-08-17T15:06:19.480Z,100087.75
2022-08-17T15:08:47.986Z,100083.78
2022-08-17T15:11:16.749Z,100085.59
2022-08-17T15:13:52.387Z,100087.56
2022-08-17T15:16:22.784Z,100083.28
2022-08-17T15:18:52.769Z,100085.44
2022-08-17T15:21:21.277Z,100084.09
2022-08-17T15:23:49.751Z,100089.19
2022-08-17T15:26:20.675Z,100087.22
2022-08-17T15:28:54.535Z,100085.59
2022-08-17T15:31:31.706Z,100082.97
2022-08-17T15:34:01.247Z,100078.88
2022-08-17T15:36:29.701Z,100084.59
2022-08-17T15:38:59.053Z,100077.22
2022-08-17T15:41:28.298Z,100082.31
2022-08-17T15:43:58.327Z,100080.66
2022-08-17T15:46:28.125Z,100079.03
2022-08-17T15:48:59.834Z,100084.09
2022-08-17T15:51:30.866Z,100079.19
2022-08-17T15:54:04.446Z,100087.03
2022-08-17T15:56:48.025Z,100083.25
2022-08-17T15:59:17.938Z,100081.91
2022-08-17T16:03:01.512Z,100078.16
2022-08-17T16:04:34.766Z,100087.94
2022-08-17T16:07:03.313Z,100089.09
2022-08-17T16:09:31.693Z,100083.84
2022-08-17T16:12:10.400Z,100084.81
2022-08-17T16:14:40.566Z,100083.50
2022-08-17T16:17:38.523Z,100088.59
2022-08-17T16:19:58.555Z,100080.06
2022-08-17T16:22:33.623Z,100085.94
2022-08-17T16:25:04.723Z,100087.44
2022-08-17T16:27:33.258Z,100092.47
2022-08-17T16:30:03.448Z,100091.16
2022-08-17T16:32:32.880Z,100093.28
2022-08-17T16:35:03.307Z,100099.47
2022-08-17T16:37:34.233Z,100097.34
2022-08-17T16:40:03.808Z,100098.78
2022-08-17T16:42:35.046Z,100101.91
2022-08-17T16:45:13.154Z,100097.81
2022-08-17T16:47:42.606Z,100097.63
2022-08-17T16:50:12.779Z,100096.28
2022-08-17T16:52:42.554Z,100096.94
2022-08-17T16:55:13.253Z,100105.91
2022-08-17T16:57:47.350Z,100099.03
2022-08-17T17:00:21.152Z,100108.00
2022-08-17T17:02:50.294Z,100111.41
2022-08-17T17:05:51.471Z,100107.31
2022-08-17T17:08:30.992Z,100108.25
2022-08-17T17:11:08.969Z,100110.03
2022-08-17T17:13:44.780Z,100113.47
2022-08-17T17:16:21.809Z,100112.16
2022-08-17T17:19:05.293Z,100108.03
2022-08-17T17:21:43.060Z,100111.78
2022-08-17T17:24:16.759Z,100110.13
2022-08-17T17:27:17.781Z,100102.41
2022-08-17T17:30:00.520Z,100108.63
2022-08-17T17:32:38.020Z,100115.44
2022-08-17T17:35:11.442Z,100116.91
2022-08-17T17:37:44.275Z,100110.84
2022-08-17T17:40:19.230Z,100104.75
2022-08-17T17:42:49.483Z,100102.94
2022-08-17T17:45:23.371Z,100098.81
2022-08-17T17:47:53.670Z,100097.47
2022-08-17T17:50:30.746Z,100095.31
2022-08-17T17:53:05.515Z,100100.41
2022-08-17T17:55:46.596Z,100094.66
2022-08-17T17:58:29.561Z,100096.09
2022-08-17T18:01:14.460Z,100096.72
2022-08-17T18:04:00.140Z,100094.56
2022-08-17T18:06:41.452Z,100091.59
2022-08-17T18:09:20.501Z,100090.28
2022-08-17T18:12:04.694Z,100087.34
2022-08-17T18:14:51.050Z,100090.41
2022-08-17T18:17:20.529Z,100081.88
2022-08-17T18:19:50.480Z,100084.97
2022-08-17T18:22:21.613Z,100074.50
2022-08-17T18:24:56.046Z,100083.16
2022-08-17T18:27:32.336Z,100079.03
2022-08-17T18:30:07.248Z,100078.53
2022-08-17T18:32:38.583Z,100080.28
2022-08-17T18:35:28.836Z,100087.25
2022-08-17T18:37:59.641Z,100087.91
2022-08-17T18:40:35.760Z,100084.59
2022-08-17T18:43:09.204Z,100083.59
2022-08-17T18:45:42.423Z,100088.94
2022-08-17T18:48:27.273Z,100090.38
2022-08-17T18:51:00.322Z,100091.00
2022-08-17T18:53:36.122Z,100085.25
2022-08-17T18:56:30.691Z,100086.72
2022-08-17T18:59:07.454Z,100087.34
2022-08-17T19:01:52.533Z,100081.06
2022-08-17T19:04:37.889Z,100082.00
2022-08-17T19:07:28.059Z,100087.34
2022-08-17T19:10:02.449Z,100080.47
2022-08-17T19:12:39.213Z,100079.44
2022-08-17T19:15:10.638Z,100080.06
2022-08-17T19:17:42.952Z,100085.41
2022-08-17T19:20:17.173Z,100085.72
2022-08-17T19:22:56.820Z,100079.63
2022-08-17T19:25:30.341Z,100079.72
2022-08-17T19:28:05.264Z,100083.13
2022-08-17T19:30:51.966Z,100087.31
2022-08-17T19:33:20.844Z,100098.19
2022-08-17T19:35:58.950Z,100081.88
2022-08-17T19:38:40.187Z,100082.78
2022-08-17T19:41:17.401Z,100086.19
2022-08-17T19:44:07.134Z,100084.84
2022-08-17T19:46:48.830Z,100089.66
2022-08-17T19:49:46.766Z,100079.81
2022-08-17T19:52:42.124Z,100085.97
2022-08-17T19:55:30.459Z,100081.88
2022-08-17T19:58:08.234Z,100081.94
2022-08-17T20:00:41.943Z,100085.03
2022-08-17T20:03:17.248Z,100088.94
2022-08-17T20:06:11.622Z,100097.66
2022-08-17T20:08:42.278Z,100100.44
2022-08-17T20:11:18.593Z,100097.47
2022-08-17T20:13:52.212Z,100101.97
2022-08-17T20:16:21.233Z,100092.03
2022-08-17T20:18:56.407Z,100097.88
2022-08-17T20:21:30.247Z,100097.13
2022-08-17T20:24:07.032Z,100095.78
2022-08-17T20:26:57.865Z,100100.28
2022-08-17T20:29:39.464Z,100107.84
2022-08-17T20:32:18.688Z,100111.31
2022-08-17T20:34:48.850Z,100114.09
2022-08-17T20:37:31.869Z,100108.63
2022-08-17T20:40:20.601Z,100112.50
2022-08-17T20:42:50.751Z,100118.69
2022-08-17T20:45:48.575Z,100114.25
2022-08-17T20:48:37.055Z,100114.56
2022-08-17T20:51:24.273Z,100120.09
2022-08-17T20:54:28.588Z,100122.91
2022-08-17T20:57:00.541Z,100120.78
2022-08-17T21:00:14.686Z,100128.28
2022-08-17T21:02:45.807Z,100126.94
2022-08-17T21:05:39.040Z,100130.00
2022-08-17T21:08:16.630Z,100135.91
2022-08-17T21:10:47.325Z,100134.88
2022-08-17T21:13:45.629Z,100131.56
2022-08-17T21:16:35.855Z,100125.28
2022-08-17T21:19:19.265Z,100122.81
2022-08-17T21:21:59.265Z,100127.53
2022-08-17T21:24:43.597Z,100130.59
2022-08-17T21:27:30.393Z,100123.47
2022-08-17T21:30:24.598Z,100132.13
2022-08-17T21:33:20.837Z,100137.16
2022-08-17T21:35:52.665Z,100131.09
2022-08-17T21:38:24.318Z,100135.56
2022-08-17T21:40:55.217Z,100135.03
2022-08-17T21:43:32.127Z,100133.97
2022-08-17T21:46:05.122Z,100129.84
2022-08-17T21:48:44.094Z,100134.56
2022-08-17T21:51:17.863Z,100141.22
2022-08-17T21:53:49.984Z,100141.00
2022-08-17T21:56:26.728Z,100138.47
2022-08-17T21:58:59.354Z,100147.66
2022-08-17T22:01:30.538Z,100140.25
2022-08-17T22:04:04.521Z,100145.56
2022-08-17T22:06:38.169Z,100141.19
2022-08-17T22:09:13.563Z,100146.19
2022-08-17T22:11:54.398Z,100143.72
2022-08-17T22:14:26.490Z,100142.66
2022-08-17T22:17:19.361Z,100149.34
2022-08-17T22:19:52.971Z,100137.78
2022-08-17T22:22:29.444Z,100143.88
2022-08-17T22:25:00.689Z,100149.16
2022-08-17T22:27:55.577Z,100146.97
2022-08-17T22:30:36.352Z,100139.84
2022-08-17T22:33:36.887Z,100148.72
2022-08-17T22:36:22.015Z,100152.66
2022-08-17T22:38:51.510Z,100153.50
2022-08-17T22:41:44.908Z,100146.31
2022-08-17T22:44:23.427Z,100150.47
2022-08-17T22:46:59.605Z,100151.91
2022-08-17T22:49:32.124Z,100156.34
2022-08-17T22:52:04.853Z,100154.44
2022-08-17T22:54:51.236Z,100149.50
2022-08-17T22:57:39.336Z,100149.25
2022-08-17T23:00:29.614Z,100156.19
2022-08-17T23:03:14.872Z,100160.34
2022-08-17T23:05:46.251Z,100158.97
2022-08-17T23:08:21.369Z,100163.97
2022-08-17T23:10:50.349Z,100156.25
2022-08-17T23:13:18.891Z,100164.00
2022-08-17T23:15:48.249Z,100157.09
2022-08-17T23:18:17.883Z,100165.13
2022-08-17T23:20:46.995Z,100162.97
2022-08-17T23:23:20.621Z,100162.47
2022-08-17T23:25:51.544Z,100167.75
2022-08-17T23:28:20.041Z,100166.38
2022-08-17T23:30:48.430Z,100168.31
2022-08-17T23:33:21.373Z,100168.56
2022-08-17T23:35:49.951Z,100170.81
2022-08-17T23:38:19.822Z,100167.50
2022-08-17T23:40:48.226Z,100172.50
2022-08-17T23:46:04.058Z,100164.47
2022-08-17T23:48:36.736Z,100170.28
2022-08-17T23:51:12.398Z,100174.97
2022-08-17T23:53:47.421Z,100173.59
2022-08-17T23:56:19.451Z,100176.63
2022-08-17T23:58:47.887Z,100180.25
